Time;durP1;ratioP1;P1;durP2;ratioP2;P2;SDS_P1;SDS_P2;PMS_P1;PMS_P2;Temp;Humidity;BMP_temperature;BMP_pressure;BME280_temperature;BME280_humidity;BME280_pressure;Samples;Min_cycle;Max_cycle;Signal;HPM_P1;HPM_P2
2022/05/20 00:01:42;;;;;;;38.88;30.83;;;14.80;99.90;;;;;;5053388;28;20021;-61
2022/05/20 00:04:08;;;;;;;38.70;31.92;;;14.90;99.90;;;;;;5053212;28;20183;-60
2022/05/20 00:06:33;;;;;;;41.50;30.13;;;14.90;99.90;;;;;;5052770;28;20047;-60
2022/05/20 00:08:59;;;;;;;40.38;31.83;;;14.70;99.90;;;;;;5053117;28;20029;-61
2022/05/20 00:11:24;;;;;;;42.05;34.28;;;14.60;99.90;;;;;;5053273;28;20017;-61
2022/05/20 00:13:50;;;;;;;44.45;31.55;;;14.50;99.90;;;;;;5051817;28;20047;-61
2022/05/20 00:16:16;;;;;;;41.03;31.25;;;14.50;99.90;;;;;;5052917;28;20081;-61
2022/05/20 00:18:42;;;;;;;38.88;31.52;;;14.40;99.90;;;;;;5052779;28;20482;-61
2022/05/20 00:21:08;;;;;;;41.97;31.95;;;14.50;99.90;;;;;;5052893;28;20024;-59
2022/05/20 00:23:34;;;;;;;43.47;32.47;;;14.60;99.90;;;;;;5052601;28;20068;-60
2022/05/20 00:26:00;;;;;;;49.15;34.42;;;14.50;99.90;;;;;;5034479;28;20036;-60
2022/05/20 00:28:28;;;;;;;41.17;31.48;;;14.50;99.90;;;;;;5052787;28;20033;-60
2022/05/20 00:30:57;;;;;;;36.35;29.75;;;14.50;99.90;;;;;;5052962;28;20060;-60
2022/05/20 00:33:24;;;;;;;44.47;32.97;;;14.30;99.90;;;;;;5052601;28;20029;-60
2022/05/20 00:35:50;;;;;;;42.92;32.28;;;14.40;99.90;;;;;;5034826;28;20474;-61
2022/05/20 00:38:16;;;;;;;40.78;33.50;;;14.50;99.90;;;;;;5052799;28;20013;-61
2022/05/20 00:40:43;;;;;;;40.17;32.10;;;14.50;99.90;;;;;;5052391;28;20060;-60
2022/05/20 00:43:24;;;;;;;45.67;34.67;;;14.70;99.90;;;;;;5052406;28;20170;-61
2022/05/20 00:45:51;;;;;;;41.90;33.30;;;14.90;99.90;;;;;;5036786;28;20032;-61
2022/05/20 00:48:17;;;;;;;43.22;34.28;;;14.80;99.90;;;;;;5034182;28;20029;-61
2022/05/20 00:50:51;;;;;;;45.30;34.45;;;14.80;99.90;;;;;;5052276;28;20029;-61
2022/05/20 00:53:20;;;;;;;53.67;38.78;;;14.70;99.90;;;;;;5052168;28;20028;-60
2022/05/20 00:55:46;;;;;;;52.45;39.20;;;14.90;99.90;;;;;;5052293;28;20469;-61
2022/05/20 00:58:20;;;;;;;48.33;36.83;;;14.90;99.90;;;;;;5051826;28;20048;-60
2022/05/20 01:00:50;;;;;;;50.20;37.28;;;14.80;99.90;;;;;;5034486;28;20381;-60
2022/05/20 01:03:18;;;;;;;53.30;39.10;;;14.70;99.90;;;;;;5051806;28;20108;-60
2022/05/20 01:05:47;;;;;;;51.35;38.90;;;14.70;99.90;;;;;;5051935;28;20021;-60
2022/05/20 01:08:16;;;;;;;54.65;40.60;;;14.60;99.90;;;;;;5034120;28;20485;-60
2022/05/20 01:10:42;;;;;;;57.50;41.50;;;14.50;99.90;;;;;;5052044;28;20040;-61
2022/05/20 01:13:11;;;;;;;58.80;41.08;;;14.50;99.90;;;;;;5051502;28;20037;-60
2022/05/20 01:15:37;;;;;;;69.03;46.92;;;14.50;99.90;;;;;;5051888;28;20064;-61
2022/05/20 01:18:03;;;;;;;62.45;43.75;;;14.60;99.90;;;;;;5051573;28;20107;-61
2022/05/20 01:20:32;;;;;;;52.58;38.28;;;14.60;99.90;;;;;;5050357;28;20115;-61
2022/05/20 01:23:16;;;;;;;58.72;40.70;;;14.60;99.90;;;;;;5051691;28;20079;-61
2022/05/20 01:25:45;;;;;;;46.72;35.60;;;14.50;99.90;;;;;;5051995;28;20114;-61
2022/05/20 01:28:11;;;;;;;52.55;40.83;;;14.60;99.90;;;;;;5051709;28;20029;-61
2022/05/20 01:30:41;;;;;;;56.97;43.15;;;14.80;99.90;;;;;;5034223;28;20029;-60
2022/05/20 01:33:08;;;;;;;56.42;41.03;;;14.90;99.90;;;;;;5051872;28;20067;-60
2022/05/20 01:35:43;;;;;;;47.60;37.10;;;14.90;99.90;;;;;;5052028;28;20075;-60
2022/05/20 01:38:11;;;;;;;45.85;37.95;;;14.50;99.90;;;;;;5053765;28;20060;-60
2022/05/20 01:41:03;;;;;;;54.20;40.00;;;14.40;99.90;;;;;;5053525;28;20092;-60
2022/05/20 01:43:47;;;;;;;58.65;41.92;;;14.40;99.90;;;;;;5051912;28;20029;-61
2022/05/20 01:46:12;;;;;;;60.42;43.67;;;14.50;99.90;;;;;;5052147;28;20017;-61
2022/05/20 01:48:41;;;;;;;60.20;41.75;;;14.60;99.90;;;;;;5051659;28;20032;-60
2022/05/20 01:51:11;;;;;;;57.95;40.90;;;14.70;99.90;;;;;;5051653;28;20025;-60
2022/05/20 01:53:52;;;;;;;52.03;38.40;;;14.70;99.90;;;;;;5051786;28;20059;-61
2022/05/20 01:56:29;;;;;;;50.40;39.58;;;14.70;99.90;;;;;;5052019;28;20104;-62
2022/05/20 01:59:17;;;;;;;53.47;40.22;;;14.70;99.90;;;;;;5033924;28;20031;-60
2022/05/20 02:02:08;;;;;;;53.08;39.60;;;14.60;99.90;;;;;;5051837;28;20106;-61
2022/05/20 02:05:00;;;;;;;51.92;39.13;;;14.70;99.90;;;;;;5051195;28;20215;-61
2022/05/20 02:07:30;;;;;;;50.83;38.63;;;14.50;99.90;;;;;;5042340;28;20041;-60
2022/05/20 02:10:08;;;;;;;48.22;37.60;;;14.40;99.90;;;;;;5051806;28;20060;-61
2022/05/20 02:12:41;;;;;;;49.17;38.15;;;14.10;99.90;;;;;;5051807;28;20028;-61
2022/05/20 02:15:18;;;;;;;55.33;41.67;;;14.10;99.90;;;;;;5052113;28;20452;-60
2022/05/20 02:17:47;;;;;;;59.10;41.83;;;14.20;99.90;;;;;;5051475;28;20025;-61
2022/05/20 02:20:19;;;;;;;63.97;45.25;;;14.40;99.90;;;;;;5034022;28;20115;-62
2022/05/20 02:22:55;;;;;;;57.78;41.65;;;14.40;99.90;;;;;;5051278;28;20041;-61
2022/05/20 02:25:29;;;;;;;56.65;40.55;;;14.40;99.90;;;;;;5051279;28;20397;-61
2022/05/20 02:28:01;;;;;;;54.72;41.35;;;14.50;99.90;;;;;;5051423;28;20059;-60
2022/05/20 02:30:31;;;;;;;59.78;43.15;;;14.70;99.90;;;;;;5051412;28;20021;-61
2022/05/20 02:33:29;;;;;;;64.20;44.40;;;14.90;99.90;;;;;;5033449;28;20025;-61
2022/05/20 02:36:07;;;;;;;54.97;41.60;;;15.00;99.90;;;;;;5051658;28;20025;-60
2022/05/20 02:38:33;;;;;;;59.50;43.00;;;15.00;99.90;;;;;;5054851;28;20151;-61
2022/05/20 02:40:59;;;;;;;53.03;42.45;;;15.00;99.90;;;;;;5037193;28;20100;-60
2022/05/20 02:43:24;;;;;;;56.63;42.15;;;15.20;99.90;;;;;;5055110;28;20104;-60
2022/05/20 02:45:51;;;;;;;55.47;41.63;;;15.30;99.90;;;;;;5055138;28;20055;-61
2022/05/20 02:48:19;;;;;;;58.95;40.75;;;15.40;99.90;;;;;;5055046;28;20028;-61
2022/05/20 02:50:45;;;;;;;57.05;42.83;;;15.40;99.90;;;;;;5054484;28;20064;-60
2022/05/20 02:53:11;;;;;;;55.80;41.10;;;15.50;99.90;;;;;;5054829;28;20426;-60
2022/05/20 02:55:38;;;;;;;54.17;40.88;;;15.60;99.90;;;;;;5054561;28;20021;-61
2022/05/20 02:58:04;;;;;;;56.63;42.20;;;15.60;99.90;;;;;;5054135;28;20022;-61
2022/05/20 03:05:58;;;;;;;55.47;41.67;;;15.20;99.90;;;;;;5054665;28;20392;-60
2022/05/20 03:08:24;;;;;;;56.22;41.47;;;15.00;99.90;;;;;;5036433;28;20033;-60
2022/05/20 03:10:50;;;;;;;56.75;42.47;;;15.00;99.90;;;;;;5054586;28;20036;-61
2022/05/20 03:13:16;;;;;;;63.78;44.92;;;15.10;99.90;;;;;;5054735;28;20390;-61
2022/05/20 03:15:42;;;;;;;54.08;43.13;;;15.20;99.90;;;;;;5054366;28;20025;-60
2022/05/20 03:18:10;;;;;;;58.08;44.78;;;15.30;99.90;;;;;;5036894;28;20116;-61
2022/05/20 03:20:37;;;;;;;56.90;42.83;;;15.30;99.90;;;;;;5054069;28;20039;-60
2022/05/20 03:23:03;;;;;;;62.05;43.88;;;15.30;99.90;;;;;;5052831;28;20028;-60
2022/05/20 03:25:28;;;;;;;62.88;43.90;;;15.40;99.90;;;;;;5053763;28;20048;-60
2022/05/20 03:27:54;;;;;;;59.80;44.58;;;15.30;99.90;;;;;;5053748;28;20077;-61
2022/05/20 03:30:20;;;;;;;60.58;44.80;;;15.30;99.90;;;;;;5053807;28;20086;-60
2022/05/20 03:32:46;;;;;;;67.63;48.30;;;15.40;99.90;;;;;;5054143;28;20428;-60
2022/05/20 03:35:12;;;;;;;68.03;47.03;;;15.70;99.90;;;;;;5053851;28;20025;-62
2022/05/20 03:37:38;;;;;;;66.82;48.03;;;15.60;99.90;;;;;;5054070;28;20100;-60
2022/05/20 03:40:05;;;;;;;67.63;48.92;;;15.50;99.90;;;;;;5054035;28;20128;-61
2022/05/20 03:42:31;;;;;;;68.97;48.58;;;15.50;99.90;;;;;;5053489;28;20489;-60
2022/05/20 03:44:56;;;;;;;65.57;46.72;;;15.40;99.90;;;;;;5053561;28;20047;-61
2022/05/20 03:47:22;;;;;;;63.38;45.08;;;15.40;99.90;;;;;;5053494;28;20100;-60
2022/05/20 03:49:48;;;;;;;58.33;44.38;;;15.40;99.90;;;;;;5053726;28;20052;-60
2022/05/20 03:52:14;;;;;;;59.33;43.17;;;15.20;99.90;;;;;;5053203;28;20579;-60
2022/05/20 03:54:40;;;;;;;65.50;46.35;;;15.30;99.90;;;;;;5053494;28;20071;-61
2022/05/20 03:57:06;;;;;;;61.80;45.30;;;15.40;99.90;;;;;;5053593;28;20032;-61
2022/05/20 03:59:39;;;;;;;65.60;46.55;;;15.40;99.90;;;;;;5053750;28;20025;-62
2022/05/20 04:02:11;;;;;;;60.05;45.08;;;15.40;99.90;;;;;;5036437;28;20028;-62
2022/05/20 04:04:49;;;;;;;58.72;44.67;;;15.40;99.90;;;;;;5053494;28;20029;-61
2022/05/20 04:07:18;;;;;;;56.17;42.50;;;15.50;99.90;;;;;;5053247;28;20029;-60
2022/05/20 04:09:45;;;;;;;57.80;42.90;;;15.50;99.90;;;;;;5053594;28;20079;-61
2022/05/20 04:12:39;;;;;;;55.97;43.47;;;15.50;99.90;;;;;;5053522;28;20023;-60
2022/05/20 04:15:06;;;;;;;59.28;43.05;;;15.50;99.90;;;;;;5045051;28;20033;-61
2022/05/20 04:17:32;;;;;;;58.72;42.78;;;15.70;99.90;;;;;;5053011;28;20105;-60
2022/05/20 04:19:57;;;;;;;58.58;43.15;;;15.70;99.90;;;;;;5052946;28;20444;-61
2022/05/20 04:22:30;;;;;;;61.80;44.33;;;15.50;99.90;;;;;;5035158;28;20041;-60
2022/05/20 04:24:56;;;;;;;;;;;15.40;99.90;;;;;;5053586;28;20020;-61
2022/05/20 04:27:21;;;;;;;56.42;42.72;;;15.40;99.90;;;;;;5052924;28;19950;-61
2022/05/20 04:29:47;;;;;;;58.05;43.97;;;15.30;99.90;;;;;;5052652;28;20333;-61
2022/05/20 04:32:13;;;;;;;57.83;43.60;;;15.30;99.90;;;;;;5052714;28;20013;-61
2022/05/20 04:34:39;;;;;;;64.80;47.03;;;15.40;99.90;;;;;;5034663;28;20036;-60
2022/05/20 04:37:05;;;;;;;66.55;47.70;;;15.50;99.90;;;;;;5052511;28;20644;-61
2022/05/20 04:39:31;;;;;;;68.38;48.75;;;15.60;99.90;;;;;;5052411;28;20186;-60
2022/05/20 04:47:27;;;;;;;72.07;49.97;;;15.70;99.90;;;;;;5051641;28;20039;-60
2022/05/20 04:49:53;;;;;;;70.38;50.35;;;15.80;99.90;;;;;;5051484;28;20404;-60
2022/05/20 04:52:19;;;;;;;62.83;47.17;;;15.80;99.90;;;;;;5033623;28;20415;-59
2022/05/20 04:54:51;;;;;;;62.33;46.38;;;15.70;99.90;;;;;;5051170;28;20021;-60
2022/05/20 04:57:23;;;;;;;71.05;47.92;;;15.60;99.90;;;;;;5051438;28;20039;-61
2022/05/20 04:59:51;;;;;;;58.30;45.38;;;15.60;99.90;;;;;;5051008;28;20021;-60
2022/05/20 05:02:17;;;;;;;58.92;47.05;;;15.60;99.90;;;;;;5051165;28;20545;-60
2022/05/20 05:04:43;;;;;;;68.45;49.30;;;15.90;99.90;;;;;;5051377;28;20524;-60
2022/05/20 05:07:09;;;;;;;72.40;51.13;;;16.10;99.90;;;;;;5051296;28;20393;-60
2022/05/20 05:09:36;;;;;;;69.53;51.53;;;16.20;99.90;;;;;;5051722;28;20049;-60
2022/05/20 05:12:04;;;;;;;71.18;50.65;;;16.30;99.90;;;;;;5051542;28;20024;-60
2022/05/20 05:14:35;;;;;;;69.82;49.22;;;16.30;99.90;;;;;;5051478;28;20044;-60
2022/05/20 05:17:04;;;;;;;65.18;49.50;;;16.30;99.90;;;;;;5051049;28;20017;-60
2022/05/20 05:19:30;;;;;;;67.95;48.38;;;16.20;99.90;;;;;;5050952;28;20031;-60
2022/05/20 05:21:55;;;;;;;66.32;49.50;;;16.20;99.90;;;;;;5051084;28;20037;-59
2022/05/20 05:24:21;;;;;;;71.40;49.90;;;16.30;99.90;;;;;;5049750;28;20060;-60
2022/05/20 05:26:47;;;;;;;65.68;49.83;;;16.40;99.90;;;;;;5050972;28;20025;-60
2022/05/20 05:29:12;;;;;;;65.03;50.60;;;16.60;99.90;;;;;;5050864;28;20389;-60
2022/05/20 05:31:38;;;;;;;64.65;48.22;;;16.60;99.90;;;;;;5050908;28;20074;-60
2022/05/20 05:34:04;;;;;;;64.22;48.67;;;16.80;99.90;;;;;;5050804;28;20045;-60
2022/05/20 05:36:30;;;;;;;65.90;49.38;;;16.60;99.90;;;;;;5050663;28;20100;-60
2022/05/20 05:38:55;;;;;;;64.63;49.25;;;16.80;99.90;;;;;;5050732;28;20127;-61
2022/05/20 05:41:21;;;;;;;66.57;48.05;;;16.90;99.90;;;;;;5048616;28;20140;-60
2022/05/20 05:43:47;;;;;;;59.47;45.65;;;17.00;99.90;;;;;;5049507;28;20663;-63
2022/05/20 05:46:13;;;;;;;55.80;44.85;;;17.10;99.90;;;;;;5017746;28;20024;-60
2022/05/20 05:48:39;;;;;;;55.00;43.10;;;17.20;99.90;;;;;;5019240;28;20051;-61
2022/05/20 05:51:05;;;;;;;59.25;41.58;;;17.10;99.90;;;;;;5025954;28;20025;-60
2022/05/20 05:53:30;;;;;;;57.72;42.28;;;17.10;99.90;;;;;;5037076;28;20025;-61
2022/05/20 05:55:58;;;;;;;55.30;41.13;;;17.20;99.90;;;;;;5036890;28;20295;-61
2022/05/20 05:58:25;;;;;;;50.17;39.22;;;17.30;99.90;;;;;;5046234;28;20021;-60
2022/05/20 06:00:51;;;;;;;52.45;39.92;;;17.40;99.90;;;;;;5041654;28;20033;-60
2022/05/20 06:03:16;;;;;;;52.92;39.17;;;17.40;99.90;;;;;;5037828;28;20055;-60
2022/05/20 06:05:43;;;;;;;52.28;40.08;;;17.50;99.90;;;;;;5041345;28;20104;-61
2022/05/20 06:08:09;;;;;;;53.88;39.67;;;17.70;99.90;;;;;;5044911;28;20075;-61
2022/05/20 06:10:35;;;;;;;52.95;40.63;;;17.90;99.90;;;;;;5042838;28;20025;-60
2022/05/20 06:13:01;;;;;;;53.28;39.17;;;18.00;99.90;;;;;;5043909;28;20111;-61
2022/05/20 06:15:28;;;;;;;52.28;40.17;;;17.90;99.90;;;;;;5041319;28;20560;-61
2022/05/20 06:17:56;;;;;;;50.03;39.65;;;18.10;99.90;;;;;;5039784;28;20500;-61
2022/05/20 06:20:23;;;;;;;55.28;41.08;;;18.20;99.90;;;;;;5039575;28;20033;-61
2022/05/20 06:22:50;;;;;;;54.58;39.45;;;18.20;99.90;;;;;;5042287;28;20128;-61
2022/05/20 06:25:16;;;;;;;52.53;40.22;;;18.20;99.90;;;;;;5023420;28;20029;-60
2022/05/20 06:27:42;;;;;;;52.25;39.40;;;18.50;99.90;;;;;;5036443;28;20033;-60
2022/05/20 06:30:12;;;;;;;50.42;39.13;;;18.70;99.90;;;;;;5037548;28;20084;-60
2022/05/20 06:32:38;;;;;;;53.13;40.00;;;19.10;99.90;;;;;;5012590;28;20035;-60
2022/05/20 06:40:48;;;;;;;51.88;37.47;;;19.30;99.90;;;;;;5043810;28;20068;-59
2022/05/20 06:43:19;;;;;;;46.53;34.53;;;19.50;99.90;;;;;;5059831;28;20517;-60
2022/05/20 06:45:48;;;;;;;41.90;34.10;;;19.80;99.90;;;;;;5062971;28;20035;-60
2022/05/20 06:48:14;;;;;;;46.95;34.65;;;20.10;99.90;;;;;;5057108;28;20484;-59
2022/05/20 06:50:42;;;;;;;41.40;33.72;;;20.40;99.90;;;;;;5045454;28;20408;-61
2022/05/20 06:53:08;;;;;;;45.42;34.05;;;20.60;99.90;;;;;;5064440;28;20024;-61
2022/05/20 06:55:35;;;;;;;44.92;34.80;;;20.40;99.90;;;;;;5059649;28;20027;-60
2022/05/20 06:58:01;;;;;;;41.50;33.75;;;20.30;99.90;;;;;;5062082;28;20032;-60
2022/05/20 07:00:27;;;;;;;39.92;34.45;;;20.10;99.90;;;;;;5060337;28;20170;-60
2022/05/20 07:02:53;;;;;;;46.70;35.65;;;20.00;99.90;;;;;;5057495;28;20041;-60
2022/05/20 07:05:19;;;;;;;42.33;36.55;;;20.10;99.90;;;;;;5058971;28;20040;-61
2022/05/20 07:07:46;;;;;;;50.90;38.00;;;20.20;99.90;;;;;;5056027;28;20047;-60
2022/05/20 07:10:14;;;;;;;49.25;37.22;;;20.20;99.90;;;;;;5064539;28;20086;-60
2022/05/20 07:12:40;;;;;;;49.40;37.58;;;20.10;99.90;;;;;;5059701;28;20104;-60
2022/05/20 07:15:07;;;;;;;42.13;34.28;;;20.20;99.90;;;;;;5057260;28;20170;-60
2022/05/20 07:17:33;;;;;;;41.17;34.10;;;20.10;99.90;;;;;;5057189;28;20539;-59
2022/05/20 07:19:59;;;;;;;45.70;32.95;;;20.20;99.90;;;;;;5054456;28;20033;-59
2022/05/20 07:22:25;;;;;;;47.35;35.78;;;20.40;99.90;;;;;;5061523;28;20024;-60
2022/05/20 07:24:51;;;;;;;44.30;36.70;;;20.80;99.90;;;;;;5067424;28;20092;-59
2022/05/20 07:27:17;;;;;;;40.55;35.20;;;20.80;99.90;;;;;;5062019;28;20025;-59
2022/05/20 07:29:43;;;;;;;39.72;34.35;;;20.60;99.90;;;;;;5063492;28;20116;-60
2022/05/20 07:32:09;;;;;;;46.13;36.30;;;20.20;99.90;;;;;;5063453;28;20025;-60
2022/05/20 07:34:35;;;;;;;45.55;36.25;;;20.40;99.90;;;;;;5068380;28;20025;-60
2022/05/20 07:37:01;;;;;;;41.40;34.15;;;20.30;99.90;;;;;;5047502;28;20055;-60
2022/05/20 07:39:27;;;;;;;43.05;34.90;;;20.00;99.90;;;;;;5045745;28;20976;-59
2022/05/20 07:41:53;;;;;;;47.75;36.83;;;20.00;99.90;;;;;;5050343;28;20058;-59
2022/05/20 07:44:19;;;;;;;46.17;37.42;;;20.00;99.90;;;;;;5046134;28;20090;-60
2022/05/20 07:46:45;;;;;;;44.72;35.70;;;19.90;99.90;;;;;;5049457;28;21068;-59
2022/05/20 07:49:11;;;;;;;50.63;37.03;;;19.80;99.90;;;;;;5044886;28;20033;-60
2022/05/20 07:51:41;;;;;;;46.50;36.28;;;20.00;99.90;;;;;;5041662;28;20040;-60
2022/05/20 07:54:15;;;;;;;44.17;36.28;;;20.10;99.90;;;;;;5047841;28;20032;-60
2022/05/20 07:56:57;;;;;;;43.65;35.13;;;20.20;99.90;;;;;;5058748;28;20056;-61
2022/05/20 07:59:40;;;;;;;43.53;35.50;;;20.30;99.90;;;;;;5031310;28;20321;-60
2022/05/20 08:02:07;;;;;;;45.28;36.55;;;20.50;99.90;;;;;;5048866;28;20055;-60
2022/05/20 08:07:32;;;;;;;44.92;36.70;;;20.90;99.90;;;;;;5044213;28;20044;-60
2022/05/20 08:10:09;;;;;;;45.38;36.97;;;21.00;99.90;;;;;;5047687;28;20028;-60
2022/05/20 08:12:35;;;;;;;45.35;35.38;;;21.20;99.90;;;;;;5045491;28;20033;-60
2022/05/20 08:15:01;;;;;;;42.05;33.90;;;21.50;99.90;;;;;;5046823;28;20028;-61
2022/05/20 08:17:26;;;;;;;45.88;33.88;;;22.00;99.90;;;;;;5050711;28;20238;-60
2022/05/20 08:19:54;;;;;;;37.78;32.10;;;22.80;99.90;;;;;;5052925;28;20132;-60
2022/05/20 08:22:24;;;;;;;40.40;31.95;;;23.60;99.90;;;;;;5048257;28;20036;-60
2022/05/20 08:24:54;;;;;;;37.05;30.10;;;24.40;99.90;;;;;;5053111;28;20046;-61
2022/05/20 08:27:22;;;;;;;37.25;32.20;;;25.50;99.90;;;;;;5049526;28;20124;-60
2022/05/20 08:29:49;;;;;;;39.40;31.40;;;25.60;99.90;;;;;;5049354;28;20036;-60
2022/05/20 08:32:15;;;;;;;31.08;27.77;;;25.20;99.90;;;;;;5044969;28;20299;-60
2022/05/20 08:34:42;;;;;;;36.58;29.88;;;25.00;99.90;;;;;;5042514;28;20498;-61
2022/05/20 08:37:08;;;;;;;35.97;30.17;;;24.90;99.90;;;;;;5044252;28;20485;-60
2022/05/20 08:39:34;;;;;;;36.58;31.50;;;24.20;99.90;;;;;;5039166;28;20350;-60
2022/05/20 08:41:59;;;;;;;37.10;31.02;;;24.00;99.90;;;;;;5041363;28;20032;-61
2022/05/20 08:44:25;;;;;;;37.40;31.58;;;23.90;99.90;;;;;;5041397;28;20163;-60
2022/05/20 08:47:06;;;;;;;37.20;31.40;;;23.20;99.90;;;;;;5025187;28;20116;-60
2022/05/20 08:49:32;;;;;;;40.78;32.08;;;23.00;99.90;;;;;;5051960;28;20432;-60
2022/05/20 08:51:57;;;;;;;39.25;32.13;;;22.70;99.90;;;;;;5054687;28;20050;-60
2022/05/20 08:54:23;;;;;;;35.35;30.67;;;22.50;99.90;;;;;;5056748;28;20512;-60
2022/05/20 08:56:49;;;;;;;39.00;31.58;;;22.30;99.90;;;;;;5050728;28;20368;-60
2022/05/20 08:59:19;;;;;;;40.60;32.75;;;22.40;99.90;;;;;;5052913;28;20035;-60
2022/05/20 09:01:50;;;;;;;36.92;32.30;;;22.40;99.90;;;;;;5042191;28;20040;-61
2022/05/20 09:04:24;;;;;;;40.95;31.65;;;22.20;99.90;;;;;;5054634;28;20045;-61
2022/05/20 09:07:04;;;;;;;40.00;31.92;;;21.80;99.90;;;;;;5055443;28;20112;-61
2022/05/20 09:09:39;;;;;;;43.03;32.38;;;21.80;99.90;;;;;;5055518;28;21209;-60
2022/05/20 09:12:05;;;;;;;38.78;32.83;;;21.40;99.90;;;;;;5058717;28;20029;-60
2022/05/20 09:17:21;;;;;;;45.80;33.78;;;21.00;99.90;;;;;;5055667;28;20052;-60
2022/05/20 09:19:54;;;;;;;40.88;32.83;;;20.80;99.90;;;;;;5055417;28;20106;-61
2022/05/20 09:22:27;;;;;;;45.28;34.85;;;21.00;99.90;;;;;;5059096;28;20079;-61
2022/05/20 09:24:52;;;;;;;43.42;34.67;;;21.10;99.90;;;;;;5046522;28;20020;-60
2022/05/20 09:27:27;;;;;;;43.05;34.30;;;21.30;99.90;;;;;;5053538;28;21282;-60
2022/05/20 09:29:59;;;;;;;45.33;34.75;;;21.50;99.90;;;;;;5055903;28;20052;-60
2022/05/20 09:32:33;;;;;;;43.30;34.65;;;21.70;99.90;;;;;;5046129;28;20117;-60
2022/05/20 09:35:11;;;;;;;43.58;33.97;;;21.90;99.90;;;;;;5050124;28;20484;-60
2022/05/20 09:37:38;;;;;;;44.08;33.75;;;21.90;99.90;;;;;;5037914;28;20368;-60
2022/05/20 09:40:16;;;;;;;45.08;32.70;;;22.20;99.90;;;;;;5036370;28;20056;-60
2022/05/20 09:43:00;;;;;;;39.25;32.42;;;22.60;99.90;;;;;;5040864;28;20036;-60
2022/05/20 09:45:27;;;;;;;42.30;33.03;;;22.10;99.90;;;;;;5042916;28;20090;-60
2022/05/20 09:47:57;;;;;;;42.15;33.38;;;22.20;99.90;;;;;;5048514;28;20032;-60
2022/05/20 09:50:34;;;;;;;40.08;34.03;;;22.20;99.90;;;;;;5046152;28;20842;-60
2022/05/20 09:53:04;;;;;;;41.08;34.25;;;22.30;99.90;;;;;;5043678;28;21793;-60
2022/05/20 09:55:36;;;;;;;44.65;35.63;;;22.30;99.90;;;;;;5047332;28;20143;-60
2022/05/20 09:58:17;;;;;;;47.67;36.05;;;22.20;99.90;;;;;;5049097;28;20036;-59
2022/05/20 10:00:49;;;;;;;46.42;35.72;;;22.10;99.90;;;;;;5045632;28;20123;-60
2022/05/20 10:03:23;;;;;;;;;;;22.00;99.90;;;;;;5046283;28;20120;-60
2022/05/20 10:06:02;;;;;;;51.38;37.53;;;21.90;99.90;;;;;;5046728;28;20401;-61
2022/05/20 10:08:57;;;;;;;52.20;38.58;;;21.80;99.90;;;;;;5043296;28;20036;-60
2022/05/20 10:11:28;;;;;;;44.78;36.55;;;21.50;99.90;;;;;;5051246;28;21169;-60
2022/05/20 10:14:11;;;;;;;49.70;38.95;;;21.30;99.90;;;;;;5049839;28;20060;-60
2022/05/20 10:17:25;;;;;;;48.03;37.05;;;21.10;99.90;;;;;;5049341;28;20028;-60
2022/05/20 10:20:02;;;;;;;51.08;38.42;;;21.00;99.90;;;;;;5037957;28;20040;-61
2022/05/20 10:22:49;;;;;;;50.70;36.42;;;21.30;99.90;;;;;;5063475;28;21213;-61
2022/05/20 10:25:31;;;;;;;49.60;37.20;;;21.70;99.90;;;;;;5040089;28;20033;-61
2022/05/20 10:32:34;;;;;;;53.55;37.97;;;21.80;99.90;;;;;;5061222;28;20122;-60
2022/05/20 10:33:52;;;;;;;54.25;39.13;;;21.80;99.90;;;;;;5065511;28;20077;-60
2022/05/20 10:36:21;;;;;;;50.08;40.83;;;21.60;99.90;;;;;;5063180;28;20446;-60
2022/05/20 10:39:32;;;;;;;51.03;41.08;;;21.30;99.90;;;;;;5058001;28;20048;-59
2022/05/20 10:42:19;;;;;;;53.25;42.65;;;20.90;99.90;;;;;;4988325;28;20033;-61
2022/05/20 10:50:28;;;;;;;61.38;48.17;;;19.90;99.90;;;;;;5062463;28;20035;-56
2022/05/20 10:53:20;;;;;;;62.15;48.08;;;19.50;99.90;;;;;;5061217;28;20021;-56
2022/05/20 10:56:20;;;;;;;68.33;49.33;;;19.20;99.90;;;;;;5063854;28;20465;-56
2022/05/20 10:59:06;;;;;;;66.80;51.83;;;19.00;99.90;;;;;;5065636;28;20763;-56
2022/05/20 11:01:47;;;;;;;70.18;52.38;;;19.00;99.90;;;;;;5062259;28;20585;-57
2022/05/20 11:04:16;;;;;;;65.72;49.72;;;18.90;99.90;;;;;;5055588;28;20110;-57
2022/05/20 11:06:41;;;;;;;65.75;49.75;;;18.90;99.90;;;;;;5053798;28;20135;-57
2022/05/20 11:09:15;;;;;;;78.05;52.75;;;18.90;99.90;;;;;;5053246;28;20105;-57
2022/05/20 11:11:59;;;;;;;69.88;50.88;;;18.90;99.90;;;;;;5054256;28;20028;-56
2022/05/20 11:14:37;;;;;;;56.95;46.70;;;19.10;99.90;;;;;;5045621;28;20094;-56
2022/05/20 11:17:24;;;;;;;62.03;46.90;;;19.10;99.90;;;;;;5035031;28;20044;-57
2022/05/20 11:20:14;;;;;;;58.83;46.95;;;19.10;99.90;;;;;;5044114;28;20029;-57
2022/05/20 11:22:56;;;;;;;59.85;45.58;;;19.20;99.90;;;;;;5044749;28;20404;-56
2022/05/20 11:25:34;;;;;;;58.25;45.63;;;19.20;99.90;;;;;;5040506;28;20036;-57
2022/05/20 11:28:15;;;;;;;56.97;43.58;;;19.40;99.90;;;;;;5044656;28;20036;-57
2022/05/20 11:30:53;;;;;;;56.47;44.42;;;19.30;99.90;;;;;;5042444;28;20040;-58
2022/05/20 11:33:54;;;;;;;58.35;44.00;;;19.30;99.90;;;;;;5046677;28;20591;-58
2022/05/20 11:36:34;;;;;;;61.90;46.03;;;19.30;99.90;;;;;;5047470;28;20130;-59
2022/05/20 11:39:12;;;;;;;62.22;47.42;;;19.20;99.90;;;;;;5052765;28;20502;-59
2022/05/20 11:41:46;;;;;;;55.45;44.90;;;19.20;99.90;;;;;;5051826;28;20035;-60
2022/05/20 11:44:46;;;;;;;59.47;46.35;;;19.30;99.90;;;;;;5046312;28;20698;-61
2022/05/20 11:47:43;;;;;;;59.55;46.28;;;19.40;99.90;;;;;;4983200;28;20041;-61
2022/05/20 11:50:28;;;;;;;65.57;47.45;;;19.40;99.90;;;;;;5048862;28;20040;-61
2022/05/20 11:52:59;;;;;;;56.33;45.53;;;19.50;99.90;;;;;;5050515;28;20052;-61
2022/05/20 11:55:33;;;;;;;56.00;44.53;;;19.70;99.90;;;;;;5052944;28;20111;-61
2022/05/20 11:58:22;;;;;;;52.65;39.67;;;19.90;99.90;;;;;;5052208;28;20434;-61
2022/05/20 12:00:49;;;;;;;47.33;36.15;;;20.30;99.90;;;;;;5049810;28;20458;-61
2022/05/20 12:03:17;;;;;;;42.15;34.42;;;20.80;99.90;;;;;;5038134;28;20147;-60
2022/05/20 12:05:46;;;;;;;44.78;34.25;;;21.20;99.90;;;;;;5051271;28;20078;-61
2022/05/20 12:08:42;;;;;;;43.03;34.25;;;21.40;99.90;;;;;;5039433;28;20033;-60
2022/05/20 12:11:28;;;;;;;35.65;28.83;;;21.40;99.90;;;;;;5055239;28;20119;-60
2022/05/20 12:14:04;;;;;;;38.65;31.17;;;21.30;99.90;;;;;;5048786;28;20034;-61
2022/05/20 12:16:31;;;;;;;37.85;30.38;;;21.30;99.90;;;;;;5053737;28;20111;-60
2022/05/20 12:24:44;;;;;;;27.45;21.92;;;22.50;99.90;;;;;;5046207;28;20071;-61
2022/05/20 12:27:32;;;;;;;27.80;22.50;;;22.40;99.90;;;;;;5052405;28;20094;-61
2022/05/20 12:30:17;;;;;;;29.92;21.33;;;22.40;99.90;;;;;;5049178;28;20123;-61
2022/05/20 12:32:46;;;;;;;26.83;20.08;;;22.00;99.90;;;;;;5045843;28;20056;-61
2022/05/20 12:35:23;;;;;;;22.65;17.15;;;21.70;99.90;;;;;;5060018;28;20025;-61
2022/05/20 12:37:48;;;;;;;20.10;15.70;;;21.40;99.90;;;;;;5055108;28;20123;-60
2022/05/20 12:40:20;;;;;;;21.15;15.65;;;21.10;99.90;;;;;;5056686;28;20123;-56
2022/05/20 12:42:56;;;;;;;23.30;16.83;;;20.70;99.90;;;;;;5063997;28;20169;-56
2022/05/20 12:45:23;;;;;;;20.35;15.55;;;20.10;99.90;;;;;;5061087;28;20089;-62
2022/05/20 12:47:48;;;;;;;17.95;15.10;;;19.70;99.90;;;;;;5060385;28;20794;-57
2022/05/20 12:50:17;;;;;;;23.02;14.48;;;19.60;99.90;;;;;;5056343;28;20123;-59
2022/05/20 12:52:53;;;;;;;18.40;13.40;;;19.40;99.90;;;;;;5050829;28;20035;-57
2022/05/20 12:55:27;;;;;;;14.65;12.20;;;19.30;99.90;;;;;;5037412;28;20123;-58
2022/05/20 12:57:55;;;;;;;15.93;12.18;;;19.30;99.90;;;;;;5043163;28;20701;-62
2022/05/20 13:00:34;;;;;;;13.50;9.77;;;19.30;99.90;;;;;;5055673;28;20499;-57
2022/05/20 13:03:26;;;;;;;11.07;9.88;;;19.20;99.90;;;;;;5058721;28;20754;-56
2022/05/20 13:06:14;;;;;;;10.00;7.97;;;19.20;99.90;;;;;;5030509;28;20037;-55
2022/05/20 13:08:49;;;;;;;12.07;8.55;;;19.20;99.90;;;;;;5057515;28;20028;-55
2022/05/20 13:11:17;;;;;;;9.18;7.78;;;19.30;99.90;;;;;;5061503;28;20090;-54
2022/05/20 13:13:45;;;;;;;9.40;6.53;;;19.30;99.90;;;;;;5060215;28;20028;-55
2022/05/20 13:16:13;;;;;;;9.45;6.45;;;19.30;99.90;;;;;;5056472;28;20264;-55
2022/05/20 13:18:43;;;;;;;9.40;6.20;;;19.30;99.90;;;;;;5062528;28;20021;-56
2022/05/20 13:21:17;;;;;;;7.47;6.60;;;19.30;99.90;;;;;;5066575;28;20040;-56
2022/05/20 13:23:50;;;;;;;19.35;13.45;;;19.30;99.90;;;;;;5062588;28;20032;-55
2022/05/20 13:26:31;;;;;;;42.72;33.78;;;19.10;99.90;;;;;;5065012;28;20036;-58